Time;durP1;ratioP1;P1;durP2;ratioP2;P2;SDS_P1;SDS_P2;PMS_P1;PMS_P2;Temp;Humidity;BMP_temperature;BMP_pressure;BME280_temperature;BME280_humidity;BME280_pressure;Samples;Min_cycle;Max_cycle;Signal;HPM_P1;HPM_P2
2022/01/30 00:02:36;;;;;;;17.02;2.53;;;5.90;99.90;;;;;;12540618;28;20049;-83
2022/01/30 00:08:38;;;;;;;17.80;3.22;;;5.90;99.90;;;;;;12567488;28;20059;-84
2022/01/30 00:14:41;;;;;;;17.75;2.55;;;5.80;99.90;;;;;;12557429;28;20041;-86
2022/01/30 00:20:58;;;;;;;14.43;2.47;;;5.80;99.90;;;;;;12551520;28;20111;-83
2022/01/30 00:27:03;;;;;;;19.35;3.35;;;5.80;99.90;;;;;;12562156;28;20516;-83
2022/01/30 00:33:05;;;;;;;19.77;3.03;;;5.80;99.90;;;;;;12559907;28;20063;-85
2022/01/30 00:39:08;;;;;;;24.55;3.17;;;5.70;99.90;;;;;;12557894;28;20048;-83
2022/01/30 00:45:10;;;;;;;19.02;3.47;;;5.70;99.90;;;;;;12564532;28;20399;-81
2022/01/30 00:51:16;;;;;;;20.45;2.65;;;5.60;99.90;;;;;;12537019;28;20096;-82
2022/01/30 00:57:19;;;;;;;21.80;2.60;;;5.70;99.90;;;;;;12552373;28;20433;-82
2022/01/30 01:03:24;;;;;;;19.55;3.22;;;5.80;99.90;;;;;;12537335;28;20037;-81
2022/01/30 01:09:35;;;;;;;15.25;3.10;;;5.80;99.90;;;;;;12550976;28;20480;-81
2022/01/30 01:28:16;;;;;;;26.88;3.25;;;5.80;99.90;;;;;;12558011;28;20087;-82
2022/01/30 01:40:21;;;;;;;16.60;3.00;;;5.60;99.90;;;;;;12555790;28;20049;-82
2022/01/30 01:46:27;;;;;;;24.65;3.85;;;5.50;99.90;;;;;;12551206;28;20057;-81
2022/01/30 01:52:30;;;;;;;13.32;2.30;;;5.50;99.90;;;;;;12549782;28;20048;-86
2022/01/30 01:58:32;;;;;;;20.30;2.63;;;5.40;99.90;;;;;;12539679;28;20099;-82
2022/01/30 02:04:34;;;;;;;19.75;2.90;;;5.40;99.90;;;;;;12538270;28;20068;-83
2022/01/30 02:10:53;;;;;;;17.42;2.80;;;5.30;99.90;;;;;;12550692;28;20528;-84
2022/01/30 02:29:36;;;;;;;21.15;3.08;;;5.40;99.90;;;;;;12562779;28;20124;-83
2022/01/30 02:35:38;;;;;;;18.27;3.33;;;5.30;99.90;;;;;;12547527;28;20053;-82
2022/01/30 02:41:41;;;;;;;18.63;2.75;;;5.30;99.90;;;;;;12562166;28;20056;-83
2022/01/30 02:48:32;;;;;;;18.95;3.70;;;5.40;99.90;;;;;;12558674;28;20063;-81
2022/01/30 02:54:10;;;;;;;;;;;5.40;99.90;;;;;;12547872;28;20079;-83
2022/01/30 03:00:13;;;;;;;21.20;2.85;;;5.00;99.90;;;;;;12535882;28;19925;-82
2022/01/30 03:06:14;;;;;;;20.63;2.35;;;4.60;99.90;;;;;;12532301;28;20076;-83
2022/01/30 03:12:18;;;;;;;18.27;2.30;;;4.60;99.90;;;;;;12540461;28;20530;-83
2022/01/30 03:18:20;;;;;;;15.13;2.80;;;4.70;99.90;;;;;;12545214;28;20303;-82
2022/01/30 03:24:22;;;;;;;18.08;2.95;;;4.70;99.90;;;;;;12543094;28;20061;-82
2022/01/30 03:30:30;;;;;;;16.40;2.50;;;4.80;99.90;;;;;;12556339;28;20045;-82
2022/01/30 03:36:32;;;;;;;16.85;2.38;;;4.90;99.90;;;;;;12536070;28;20076;-84
2022/01/30 03:42:34;;;;;;;19.63;2.58;;;5.00;99.90;;;;;;12544090;28;20090;-83
2022/01/30 03:48:36;;;;;;;23.58;3.13;;;5.10;99.90;;;;;;12538824;28;20067;-83
2022/01/30 03:54:38;;;;;;;11.95;2.45;;;5.10;99.90;;;;;;12535276;28;20540;-84
2022/01/30 04:00:40;;;;;;;22.88;3.08;;;5.00;99.90;;;;;;12532232;28;20057;-82
2022/01/30 04:06:43;;;;;;;13.32;2.63;;;5.00;99.90;;;;;;12553445;28;20045;-83
2022/01/30 04:12:45;;;;;;;17.55;2.30;;;5.00;99.90;;;;;;12526787;28;20037;-81
2022/01/30 04:18:47;;;;;;;19.63;2.83;;;5.00;99.90;;;;;;12533005;28;20083;-82
2022/01/30 04:24:49;;;;;;;23.65;3.58;;;5.00;99.90;;;;;;12554966;28;20056;-80
2022/01/30 04:30:51;;;;;;;17.08;2.70;;;5.00;99.90;;;;;;12537097;28;20036;-82
2022/01/30 04:37:15;;;;;;;19.73;2.80;;;5.00;99.90;;;;;;12555150;28;20080;-84
2022/01/30 05:08:33;;;;;;;18.20;2.75;;;4.70;99.90;;;;;;12566836;28;20124;-84
2022/01/30 05:14:37;;;;;;;21.35;3.17;;;4.70;99.90;;;;;;12536360;28;20041;-85
2022/01/30 05:20:39;;;;;;;17.47;2.77;;;4.70;99.90;;;;;;12554480;28;20060;-83
2022/01/30 05:26:43;;;;;;;20.25;2.80;;;4.70;99.90;;;;;;12553320;28;20059;-82
2022/01/30 05:32:47;;;;;;;24.40;3.60;;;4.70;99.90;;;;;;12536752;28;20072;-82
2022/01/30 05:38:50;;;;;;;26.98;3.90;;;4.60;99.90;;;;;;12540609;28;20139;-83
2022/01/30 05:45:13;;;;;;;22.27;3.40;;;4.50;99.90;;;;;;12553205;28;20049;-82
2022/01/30 05:51:14;;;;;;;16.65;3.15;;;4.60;99.90;;;;;;12547952;28;20497;-83
2022/01/30 05:57:16;;;;;;;21.60;3.20;;;4.50;99.90;;;;;;12553953;28;20049;-81
2022/01/30 06:03:18;;;;;;;22.50;3.33;;;4.50;99.90;;;;;;12552786;28;20126;-82
2022/01/30 06:09:20;;;;;;;23.75;3.35;;;4.60;99.90;;;;;;12572573;28;20057;-83
2022/01/30 06:15:22;;;;;;;23.90;3.90;;;4.70;99.90;;;;;;12547229;28;20512;-81
2022/01/30 06:21:24;;;;;;;26.27;3.88;;;4.70;99.90;;;;;;12560334;28;20036;-81
2022/01/30 06:27:26;;;;;;;29.33;3.63;;;4.70;99.90;;;;;;12545894;28;20160;-82
2022/01/30 06:33:28;;;;;;;36.03;4.13;;;4.60;99.90;;;;;;12557027;28;20221;-83
2022/01/30 06:39:30;;;;;;;36.53;4.15;;;4.60;99.90;;;;;;12554319;28;20132;-83
2022/01/30 06:45:32;;;;;;;31.40;4.40;;;4.60;99.90;;;;;;12538227;28;20053;-87
2022/01/30 06:51:34;;;;;;;30.83;4.20;;;4.50;99.90;;;;;;12534458;28;20044;-84
2022/01/30 06:57:43;;;;;;;31.65;4.85;;;4.60;99.90;;;;;;12542489;28;20087;-83
2022/01/30 07:03:45;;;;;;;31.38;4.50;;;4.50;99.90;;;;;;12538833;28;20045;-81
2022/01/30 07:09:47;;;;;;;33.53;4.00;;;4.50;99.90;;;;;;12537195;28;20475;-83
2022/01/30 07:15:51;;;;;;;26.20;5.45;;;4.40;99.90;;;;;;12534163;28;20048;-82
2022/01/30 07:21:53;;;;;;;39.95;5.43;;;4.40;99.90;;;;;;12533421;28;20048;-82
2022/01/30 07:27:55;;;;;;;36.40;4.85;;;4.40;99.90;;;;;;12535058;28;20113;-82
2022/01/30 07:33:57;;;;;;;26.80;4.43;;;4.40;99.90;;;;;;12527207;28;20041;-81
2022/01/30 07:40:00;;;;;;;27.00;4.07;;;4.30;99.90;;;;;;12542541;28;20431;-82
2022/01/30 07:46:04;;;;;;;27.20;3.80;;;4.30;99.90;;;;;;12549088;28;20048;-81
2022/01/30 07:52:08;;;;;;;31.73;4.60;;;4.40;99.90;;;;;;12555406;28;20048;-82
2022/01/30 07:58:10;;;;;;;26.57;4.57;;;4.50;99.90;;;;;;12551309;28;20177;-82
2022/01/30 08:04:12;;;;;;;35.53;4.82;;;4.50;99.90;;;;;;12528166;28;20047;-83
2022/01/30 08:10:14;;;;;;;35.25;4.68;;;4.50;99.90;;;;;;12515654;28;20512;-80
2022/01/30 08:16:18;;;;;;;37.25;4.88;;;4.50;99.90;;;;;;12535170;28;20048;-81
2022/01/30 08:22:20;;;;;;;30.50;4.33;;;4.50;99.90;;;;;;12525008;28;20071;-81
2022/01/30 08:28:22;;;;;;;27.35;4.00;;;4.40;99.90;;;;;;12551471;28;20556;-82
2022/01/30 08:34:25;;;;;;;29.20;4.53;;;4.50;99.90;;;;;;12528467;28;20044;-83
2022/01/30 08:40:27;;;;;;;25.55;4.38;;;4.60;99.90;;;;;;12549081;28;20290;-86
2022/01/30 08:46:30;;;;;;;32.65;4.32;;;4.60;99.90;;;;;;12550090;28;20061;-82
2022/01/30 08:52:32;;;;;;;26.70;4.45;;;4.60;99.90;;;;;;12530637;28;20052;-82
2022/01/30 08:58:34;;;;;;;28.50;5.07;;;4.70;99.90;;;;;;12557500;28;20045;-82
2022/01/30 09:04:36;;;;;;;33.90;4.90;;;4.90;99.90;;;;;;12539597;28;20060;-83
2022/01/30 09:10:39;;;;;;;27.13;4.65;;;4.90;99.90;;;;;;12533817;28;20097;-82
2022/01/30 09:16:42;;;;;;;30.23;4.47;;;5.00;99.90;;;;;;12539417;28;20103;-82
2022/01/30 09:23:04;;;;;;;31.38;4.90;;;5.00;99.90;;;;;;12547698;28;20048;-83
2022/01/30 09:29:06;;;;;;;26.95;4.03;;;5.10;99.90;;;;;;12564436;28;20069;-84
2022/01/30 09:35:30;;;;;;;23.80;4.82;;;5.00;99.90;;;;;;12550074;28;20045;-81
2022/01/30 09:41:33;;;;;;;27.25;4.80;;;5.10;99.90;;;;;;12537605;28;20045;-83
2022/01/30 09:47:36;;;;;;;36.97;5.23;;;5.00;99.90;;;;;;12544723;28;20080;-84
2022/01/30 09:53:39;;;;;;;35.17;4.75;;;5.10;99.90;;;;;;12550901;28;20048;-82
2022/01/30 09:59:41;;;;;;;29.48;4.70;;;5.30;99.90;;;;;;12569912;28;20048;-84
2022/01/30 10:06:05;;;;;;;29.95;5.93;;;5.60;99.90;;;;;;12563725;28;20047;-82
2022/01/30 10:12:16;;;;;;;29.67;4.88;;;5.50;99.90;;;;;;12542878;28;20037;-83
2022/01/30 10:18:20;;;;;;;39.60;5.38;;;5.50;99.90;;;;;;12557148;28;20041;-82
2022/01/30 10:24:27;;;;;;;28.13;5.20;;;5.60;99.90;;;;;;12541309;28;20045;-82
2022/01/30 10:30:29;;;;;;;26.48;5.07;;;5.80;99.90;;;;;;12554219;28;20067;-82
2022/01/30 10:36:32;;;;;;;28.27;5.35;;;5.90;99.90;;;;;;12534905;28;20080;-81
2022/01/30 10:42:46;;;;;;;34.75;5.25;;;6.00;99.90;;;;;;12542991;28;20164;-85
2022/01/30 10:49:02;;;;;;;29.53;4.70;;;6.20;99.90;;;;;;12555585;28;20639;-82
2022/01/30 10:55:05;;;;;;;33.15;4.88;;;6.20;99.90;;;;;;12538271;28;20041;-83
2022/01/30 11:01:07;;;;;;;35.28;4.60;;;6.10;99.90;;;;;;12535379;28;20056;-82
2022/01/30 11:07:10;;;;;;;31.08;4.95;;;6.00;99.90;;;;;;12551458;28;20056;-87
2022/01/30 11:13:24;;;;;;;35.15;5.45;;;6.00;99.90;;;;;;12541452;28;20041;-83
2022/01/30 11:19:27;;;;;;;34.97;5.17;;;6.00;99.90;;;;;;12536439;28;20056;-82
2022/01/30 11:25:33;;;;;;;31.42;5.55;;;5.90;99.90;;;;;;12520588;28;20684;-84
2022/01/30 11:31:36;;;;;;;30.13;5.30;;;6.00;99.90;;;;;;12536250;28;20048;-82
2022/01/30 11:37:39;;;;;;;27.77;5.15;;;6.10;99.90;;;;;;12535455;28;20053;-82
2022/01/30 11:44:19;;;;;;;27.88;5.28;;;6.20;99.90;;;;;;12537221;28;20060;-81
2022/01/30 11:50:25;;;;;;;34.13;5.13;;;6.10;99.90;;;;;;12543348;28;20096;-81
2022/01/30 11:56:31;;;;;;;33.75;4.47;;;6.40;99.90;;;;;;12555439;28;20048;-81
2022/01/30 12:02:35;;;;;;;27.45;4.25;;;6.40;99.90;;;;;;12567328;28;20047;-82
2022/01/30 12:08:48;;;;;;;32.67;4.97;;;6.20;99.90;;;;;;12541438;28;20056;-82
2022/01/30 12:14:50;;;;;;;30.00;4.15;;;6.10;99.90;;;;;;12528551;28;20153;-81
2022/01/30 12:21:04;;;;;;;25.92;4.60;;;6.00;99.90;;;;;;12532095;28;20041;-81
2022/01/30 12:27:06;;;;;;;;;;;6.10;99.90;;;;;;12518086;28;20055;-83
2022/01/30 12:33:32;;;;;;;36.28;5.43;;;6.00;99.90;;;;;;12506561;28;20016;-82
2022/01/30 12:39:34;;;;;;;38.85;6.85;;;5.90;99.90;;;;;;12521967;28;20049;-82
2022/01/30 12:45:37;;;;;;;31.58;5.45;;;6.00;99.90;;;;;;12508859;28;20508;-83
2022/01/30 12:51:42;;;;;;;35.63;5.20;;;5.90;99.90;;;;;;12531536;28;20056;-80
2022/01/30 12:57:45;;;;;;;;;;;6.00;99.90;;;;;;12544551;28;20045;-80
2022/01/30 13:04:04;;;;;;;36.78;5.85;;;6.00;99.90;;;;;;12527629;28;19944;-82
2022/01/30 13:10:09;;;;;;;29.67;5.22;;;6.00;99.90;;;;;;12552186;28;20132;-81
2022/01/30 13:16:13;;;;;;;28.70;4.85;;;5.90;99.90;;;;;;12542597;28;20108;-81
2022/01/30 13:22:24;;;;;;;;;;;6.00;99.90;;;;;;12541759;28;20048;-81
2022/01/30 13:28:26;;;;;;;27.70;4.05;;;6.10;99.90;;;;;;12548471;28;19931;-82
2022/01/30 13:34:30;;;;;;;26.40;5.00;;;5.90;99.90;;;;;;12540266;28;20405;-81
2022/01/30 13:40:41;;;;;;;29.15;5.25;;;5.80;99.90;;;;;;12546614;28;20060;-81
2022/01/30 13:47:02;;;;;;;30.75;4.90;;;5.70;99.90;;;;;;12546233;28;20084;-82
2022/01/30 13:53:16;;;;;;;28.25;4.15;;;5.90;99.90;;;;;;12530265;28;20051;-83
2022/01/30 13:59:28;;;;;;;33.72;5.38;;;5.90;99.90;;;;;;12549464;28;20543;-82
2022/01/30 14:05:32;;;;;;;27.55;4.43;;;5.90;99.90;;;;;;12527736;28;21340;-82
2022/01/30 14:11:37;;;;;;;27.37;4.33;;;5.90;99.90;;;;;;12552013;28;20493;-81
2022/01/30 14:17:42;;;;;;;30.15;4.32;;;5.90;99.90;;;;;;12534337;28;20106;-81
2022/01/30 14:23:45;;;;;;;28.27;5.05;;;5.80;99.90;;;;;;12551138;28;20374;-81
2022/01/30 14:30:01;;;;;;;26.75;4.10;;;5.90;99.90;;;;;;12541110;28;20185;-81
2022/01/30 14:36:06;;;;;;;30.33;4.55;;;5.90;99.90;;;;;;12549379;28;20129;-81
2022/01/30 14:42:12;;;;;;;29.15;4.45;;;5.90;99.90;;;;;;12535216;28;20068;-81
2022/01/30 14:48:14;;;;;;;34.03;4.60;;;5.90;99.90;;;;;;12555279;28;20049;-81
2022/01/30 14:54:20;;;;;;;25.30;3.63;;;5.80;99.90;;;;;;12533501;28;20079;-82
2022/01/30 15:00:23;;;;;;;24.48;4.28;;;5.80;99.90;;;;;;12540307;28;20052;-81
2022/01/30 15:06:25;;;;;;;29.02;4.50;;;5.70;99.90;;;;;;12530259;28;20139;-80
2022/01/30 15:12:26;;;;;;;27.38;4.72;;;5.80;99.90;;;;;;12532774;28;20512;-81
2022/01/30 15:18:35;;;;;;;25.40;4.65;;;5.70;99.90;;;;;;12532539;28;20080;-80
2022/01/30 15:24:37;;;;;;;24.50;4.07;;;5.70;99.90;;;;;;12534359;28;20109;-82
2022/01/30 15:30:39;;;;;;;29.83;4.82;;;5.60;99.90;;;;;;12535636;28;20492;-80
2022/01/30 15:36:41;;;;;;;38.97;5.32;;;5.60;99.90;;;;;;12517941;28;20053;-79
2022/01/30 15:42:43;;;;;;;27.95;4.57;;;5.60;99.90;;;;;;12512094;28;20530;-80
2022/01/30 15:49:01;;;;;;;26.65;4.35;;;5.50;99.90;;;;;;12544019;28;20135;-81
2022/01/30 15:55:04;;;;;;;29.00;4.65;;;5.50;99.90;;;;;;12551107;28;20128;-81
2022/01/30 16:01:06;;;;;;;30.73;4.78;;;5.50;99.90;;;;;;12544114;28;20045;-81
2022/01/30 16:07:08;;;;;;;30.30;4.22;;;5.30;99.90;;;;;;12552441;28;20132;-80
2022/01/30 16:19:31;;;;;;;25.98;4.30;;;5.20;99.90;;;;;;12558027;28;20068;-81
2022/01/30 16:25:36;;;;;;;32.47;4.60;;;5.30;99.90;;;;;;12540491;28;20160;-81
2022/01/30 16:31:38;;;;;;;28.38;5.13;;;5.20;99.90;;;;;;12563126;28;20178;-83
2022/01/30 16:37:41;;;;;;;34.50;5.22;;;5.20;99.90;;;;;;12525664;28;20904;-81
2022/01/30 16:43:51;;;;;;;31.50;5.18;;;5.10;99.90;;;;;;12541524;28;20075;-82
2022/01/30 16:49:54;;;;;;;23.05;4.28;;;5.10;99.90;;;;;;12566794;28;20044;-80
2022/01/30 16:55:56;;;;;;;25.75;4.22;;;5.10;99.90;;;;;;12548749;28;20182;-80
2022/01/30 17:01:58;;;;;;;26.58;4.45;;;5.10;99.90;;;;;;12512071;28;20067;-80
2022/01/30 17:08:00;;;;;;;30.70;5.45;;;5.10;99.90;;;;;;12512594;28;20036;-80
2022/01/30 17:14:03;;;;;;;26.10;4.05;;;4.90;99.90;;;;;;12528545;28;20174;-80
2022/01/30 17:20:06;;;;;;;33.53;4.47;;;4.90;99.90;;;;;;12524445;28;20064;-81
2022/01/30 17:26:08;;;;;;;30.95;4.72;;;4.80;99.90;;;;;;12528841;28;20121;-80
2022/01/30 17:32:10;;;;;;;29.55;4.78;;;4.60;99.90;;;;;;12551416;28;20091;-82
2022/01/30 17:38:14;;;;;;;35.50;4.57;;;4.60;99.90;;;;;;12544733;28;20135;-80
2022/01/30 17:44:17;;;;;;;32.78;4.93;;;4.40;99.90;;;;;;12519678;28;20064;-79
2022/01/30 17:50:19;;;;;;;31.42;4.40;;;4.30;99.90;;;;;;12524703;28;20045;-79
2022/01/30 17:56:21;;;;;;;29.83;4.68;;;4.20;99.90;;;;;;12512116;28;20053;-81
2022/01/30 18:02:23;;;;;;;27.65;4.30;;;4.10;99.90;;;;;;12522653;28;20059;-79
2022/01/30 18:08:26;;;;;;;32.75;4.20;;;4.00;99.90;;;;;;12518478;28;20041;-81
2022/01/30 18:14:28;;;;;;;28.23;3.50;;;4.00;99.90;;;;;;12547273;28;20040;-79
2022/01/30 18:20:31;;;;;;;22.42;4.30;;;4.10;99.90;;;;;;12532733;28;20056;-79
2022/01/30 18:26:33;;;;;;;33.83;4.65;;;4.10;99.90;;;;;;12543354;28;20140;-80
2022/01/30 18:32:35;;;;;;;31.88;4.95;;;4.10;99.90;;;;;;12546621;28;20054;-80
2022/01/30 18:38:54;;;;;;;25.23;4.68;;;4.00;99.90;;;;;;12544478;28;20504;-79
2022/01/30 18:44:57;;;;;;;33.47;5.00;;;3.90;99.90;;;;;;12546141;28;20051;-79
2022/01/30 18:50:59;;;;;;;33.28;5.32;;;3.90;99.90;;;;;;12525053;28;20067;-79
2022/01/30 18:57:01;;;;;;;30.45;4.50;;;3.90;99.90;;;;;;12527966;28;20056;-79
2022/01/30 19:03:03;;;;;;;26.15;4.25;;;3.80;99.90;;;;;;12522775;28;20633;-80
2022/01/30 19:09:08;;;;;;;29.13;5.22;;;3.60;99.90;;;;;;12552482;28;20049;-80
2022/01/30 19:15:10;;;;;;;30.67;4.23;;;3.50;99.90;;;;;;12545087;28;20066;-79
2022/01/30 19:21:12;;;;;;;24.38;4.20;;;3.40;99.90;;;;;;12547789;28;20120;-80
2022/01/30 19:27:14;;;;;;;31.17;5.40;;;3.40;99.90;;;;;;12552906;28;20610;-80
2022/01/30 19:33:16;;;;;;;31.42;4.85;;;3.40;99.90;;;;;;12582390;28;20075;-81
2022/01/30 19:39:18;;;;;;;27.58;4.93;;;3.30;99.90;;;;;;12536541;28;20101;-80
2022/01/30 19:45:20;;;;;;;36.78;4.45;;;3.10;99.90;;;;;;12549199;28;20055;-80
2022/01/30 19:51:22;;;;;;;32.53;4.80;;;3.00;99.90;;;;;;12530557;28;20465;-80
2022/01/30 19:57:24;;;;;;;22.05;4.30;;;2.80;99.90;;;;;;12533619;28;20097;-80
2022/01/30 20:03:27;;;;;;;37.00;4.90;;;2.80;99.90;;;;;;12543737;28;20048;-80
2022/01/30 20:09:29;;;;;;;37.15;4.93;;;2.90;99.90;;;;;;12536542;28;20131;-80
2022/01/30 20:15:31;;;;;;;32.25;5.00;;;3.10;99.90;;;;;;12529618;28;20052;-81
2022/01/30 20:21:33;;;;;;;35.50;5.70;;;3.30;99.90;;;;;;12530225;28;20055;-79
2022/01/30 20:27:34;;;;;;;34.10;4.60;;;3.40;99.90;;;;;;12524412;28;20071;-80
2022/01/30 20:33:36;;;;;;;28.52;4.30;;;3.40;99.90;;;;;;12530460;28;20064;-81
2022/01/30 20:39:39;;;;;;;33.20;5.13;;;3.20;99.90;;;;;;12542528;28;20139;-79
2022/01/30 20:45:43;;;;;;;37.90;5.22;;;3.10;99.90;;;;;;12546580;28;20583;-79
2022/01/30 20:51:45;;;;;;;34.17;5.60;;;3.10;99.90;;;;;;12534905;28;20048;-80
2022/01/30 20:57:47;;;;;;;34.88;5.72;;;3.00;99.90;;;;;;12531412;28;20056;-80
2022/01/30 21:03:49;;;;;;;17.45;4.05;;;3.00;99.90;;;;;;12527541;28;20055;-79
2022/01/30 21:09:54;;;;;;;24.58;4.15;;;2.90;99.90;;;;;;12541791;28;20044;-79
2022/01/30 21:15:56;;;;;;;37.65;4.68;;;2.80;99.90;;;;;;12527467;28;20072;-80
2022/01/30 21:22:01;;;;;;;44.50;5.43;;;2.80;99.90;;;;;;12537462;28;20574;-80
2022/01/30 21:28:03;;;;;;;33.10;4.45;;;2.90;99.90;;;;;;12548930;28;20148;-80
2022/01/30 21:34:05;;;;;;;30.50;4.97;;;2.90;99.90;;;;;;12527907;28;20037;-79
2022/01/30 21:40:09;;;;;;;30.35;4.95;;;3.00;99.90;;;;;;12525864;28;20127;-80
2022/01/30 21:46:11;;;;;;;35.40;4.28;;;3.00;99.90;;;;;;12546742;28;20644;-80
2022/01/30 21:52:14;;;;;;;33.63;4.90;;;2.90;99.90;;;;;;12540458;28;20041;-79
2022/01/30 21:58:17;;;;;;;45.33;5.38;;;2.80;99.90;;;;;;12533821;28;20045;-80
2022/01/30 22:04:19;;;;;;;30.25;5.15;;;2.70;99.90;;;;;;12535672;28;20076;-81
2022/01/30 22:10:23;;;;;;;41.80;5.57;;;2.80;99.90;;;;;;12546188;28;20049;-79
2022/01/30 22:16:25;;;;;;;32.65;5.03;;;2.80;99.90;;;;;;12526813;28;20448;-81
2022/01/30 22:22:27;;;;;;;31.00;4.93;;;2.80;99.90;;;;;;12525832;28;20041;-81
2022/01/30 22:28:29;;;;;;;36.28;5.32;;;2.90;99.90;;;;;;12536822;28;20136;-80
2022/01/30 22:34:31;;;;;;;30.42;5.03;;;2.80;99.90;;;;;;12530795;28;20053;-82
2022/01/30 22:40:35;;;;;;;43.55;6.40;;;2.80;99.90;;;;;;12559592;28;20132;-80
2022/01/30 22:46:37;;;;;;;37.55;5.03;;;2.80;99.90;;;;;;12543534;28;20052;-80
2022/01/30 22:52:39;;;;;;;39.70;5.82;;;2.80;99.90;;;;;;12549930;28;20281;-80
2022/01/30 22:58:41;;;;;;;39.88;6.22;;;2.70;99.90;;;;;;12564153;28;20099;-80
2022/01/30 23:04:46;;;;;;;34.20;5.32;;;2.70;99.90;;;;;;12534818;28;20060;-80
2022/01/30 23:10:51;;;;;;;39.30;5.50;;;2.70;99.90;;;;;;12541927;28;20126;-80
2022/01/30 23:16:53;;;;;;;47.45;7.35;;;2.70;99.90;;;;;;12547959;28;20052;-79
2022/01/30 23:22:58;;;;;;;48.33;5.85;;;2.70;99.90;;;;;;12539112;28;20041;-80
2022/01/30 23:29:06;;;;;;;38.83;5.45;;;2.70;99.90;;;;;;12535066;28;20389;-80
2022/01/30 23:35:09;;;;;;;48.33;6.22;;;2.60;99.90;;;;;;12547367;28;20135;-80
2022/01/30 23:41:21;;;;;;;31.75;5.88;;;2.60;99.90;;;;;;12529319;28;20068;-79
2022/01/30 23:47:25;;;;;;;32.47;6.18;;;2.60;99.90;;;;;;12547567;28;20055;-80
2022/01/30 23:53:27;;;;;;;38.72;6.85;;;2.60;99.90;;;;;;12531678;28;20048;-81
2022/01/30 23:59:31;;;;;;;43.85;6.13;;;2.60;99.90;;;;;;12530458;28;20121;-80
